Time;durP1;ratioP1;P1;durP2;ratioP2;P2;SDS_P1;SDS_P2;PMS_P1;PMS_P2;Temp;Humidity;BMP_temperature;BMP_pressure;BME280_temperature;BME280_humidity;BME280_pressure;Samples;Min_cycle;Max_cycle;Signal;HPM_P1;HPM_P2
2022/02/18 00:00:06;;;;;;;10.63;2.40;;;5.40;95.30;;;;;;5016982;28;20165;-87
2022/02/18 00:02:31;;;;;;;4.90;1.63;;;5.30;95.40;;;;;;5016739;28;20192;-88
2022/02/18 00:04:57;;;;;;;2.33;1.30;;;5.20;95.50;;;;;;5032248;28;20435;-85
2022/02/18 00:07:22;;;;;;;3.63;1.60;;;5.20;95.50;;;;;;5016461;28;20164;-87
2022/02/18 00:09:48;;;;;;;2.00;1.43;;;5.20;95.40;;;;;;5016221;28;20646;-87
2022/02/18 00:12:13;;;;;;;4.20;1.80;;;5.20;95.30;;;;;;5033487;28;20235;-88
2022/02/18 00:14:39;;;;;;;2.60;1.40;;;5.20;95.40;;;;;;5019533;28;20233;-88
2022/02/18 00:17:04;;;;;;;1.93;1.10;;;5.20;95.20;;;;;;5031483;28;20178;-88
2022/02/18 00:19:30;;;;;;;4.20;1.70;;;5.20;95.20;;;;;;5033939;28;20168;-90
2022/02/18 00:21:55;;;;;;;5.20;1.20;;;5.20;95.10;;;;;;5018958;28;20231;-88
2022/02/18 00:24:21;;;;;;;3.43;1.43;;;5.20;95.10;;;;;;5033882;28;20631;-88
2022/02/18 00:26:47;;;;;;;4.87;1.73;;;5.20;95.10;;;;;;5032611;28;20179;-89
2022/02/18 00:29:13;;;;;;;2.90;2.00;;;5.20;95.00;;;;;;5032478;28;20177;-88
2022/02/18 00:31:39;;;;;;;1.40;1.20;;;5.20;95.00;;;;;;5018345;28;20431;-87
2022/02/18 00:34:04;;;;;;;2.77;1.60;;;5.10;95.10;;;;;;5015673;28;20176;-88
2022/02/18 00:36:30;;;;;;;3.33;1.80;;;5.20;95.00;;;;;;5015656;28;20200;-88
2022/02/18 00:38:55;;;;;;;1.77;1.00;;;5.20;95.00;;;;;;5015861;28;20252;-87
2022/02/18 00:41:21;;;;;;;3.13;1.33;;;5.20;94.80;;;;;;5015648;28;20196;-88
2022/02/18 00:43:46;;;;;;;5.30;1.50;;;5.30;94.70;;;;;;5015657;28;20644;-88
2022/02/18 00:46:12;;;;;;;2.37;1.73;;;5.30;94.60;;;;;;5015716;28;20183;-89
2022/02/18 00:48:38;;;;;;;4.70;1.50;;;5.40;94.50;;;;;;5027943;28;20191;-87
2022/02/18 00:51:03;;;;;;;5.43;1.33;;;5.40;94.40;;;;;;5032079;28;20449;-88
2022/02/18 00:53:29;;;;;;;8.53;1.50;;;5.50;94.00;;;;;;5033544;28;20176;-88
2022/02/18 00:55:54;;;;;;;5.93;1.53;;;5.50;93.90;;;;;;5032775;28;20200;-88
2022/02/18 00:58:20;;;;;;;6.90;2.10;;;5.60;93.90;;;;;;5031953;28;20172;-88
2022/02/18 01:00:49;;;;;;;6.10;1.40;;;5.60;93.90;;;;;;5031635;28;20169;-88
2022/02/18 01:03:15;;;;;;;3.13;1.33;;;5.60;94.00;;;;;;5032708;28;20419;-88
2022/02/18 01:05:40;;;;;;;3.40;1.30;;;5.70;94.20;;;;;;5031993;28;20545;-89
2022/02/18 01:08:06;;;;;;;7.80;1.40;;;5.70;94.40;;;;;;5031781;28;20427;-89
2022/02/18 01:10:31;;;;;;;3.63;1.70;;;5.80;94.70;;;;;;5032839;28;20180;-87
2022/02/18 01:12:57;;;;;;;3.50;1.60;;;5.80;94.90;;;;;;5031674;28;20228;-87
2022/02/18 01:15:23;;;;;;;1.80;1.27;;;5.80;95.20;;;;;;5031788;28;20734;-88
2022/02/18 01:17:48;;;;;;;1.80;1.70;;;5.80;95.70;;;;;;5032836;28;20164;-87
2022/02/18 01:20:14;;;;;;;2.20;1.30;;;5.80;96.10;;;;;;5031840;28;20203;-88
2022/02/18 01:22:39;;;;;;;4.63;1.50;;;5.80;96.80;;;;;;5019664;28;20267;-88
2022/02/18 01:25:06;;;;;;;2.30;1.20;;;5.90;97.20;;;;;;5014904;28;20184;-87
2022/02/18 01:27:32;;;;;;;3.43;1.43;;;5.90;97.30;;;;;;5015016;28;20187;-88
2022/02/18 01:29:58;;;;;;;4.40;1.50;;;5.80;97.30;;;;;;5015069;28;20415;-88
2022/02/18 01:32:23;;;;;;;2.57;1.40;;;5.80;97.30;;;;;;5014582;28;20205;-88
2022/02/18 01:34:48;;;;;;;3.70;1.30;;;5.80;97.30;;;;;;5022440;28;20172;-87
2022/02/18 01:37:14;;;;;;;2.20;1.40;;;5.90;97.30;;;;;;5034768;28;20685;-88
2022/02/18 01:39:39;;;;;;;3.00;1.33;;;5.90;97.30;;;;;;5052244;28;20172;-87
2022/02/18 01:42:05;;;;;;;2.20;1.20;;;5.90;97.30;;;;;;5034859;28;20534;-87
2022/02/18 01:44:42;;;;;;;7.30;1.57;;;5.90;97.30;;;;;;5037719;28;20402;-88
2022/02/18 01:47:13;;;;;;;7.63;1.43;;;5.90;97.30;;;;;;5038513;28;20182;-88
2022/02/18 01:49:39;;;;;;;6.13;1.30;;;5.90;97.30;;;;;;5038457;28;20485;-88
2022/02/18 01:52:06;;;;;;;2.63;1.20;;;5.90;97.30;;;;;;5038537;28;20564;-87
2022/02/18 01:54:33;;;;;;;7.13;2.00;;;5.90;97.30;;;;;;5038051;28;20417;-87
2022/02/18 01:56:58;;;;;;;5.47;1.33;;;5.90;97.30;;;;;;5056615;28;20445;-89
2022/02/18 01:59:26;;;;;;;2.20;1.40;;;5.90;97.30;;;;;;5038114;28;20410;-87
2022/02/18 02:01:52;;;;;;;2.60;1.20;;;5.90;97.30;;;;;;5055972;28;20199;-88
2022/02/18 02:04:17;;;;;;;3.53;1.50;;;5.90;97.30;;;;;;5038034;28;20560;-88
2022/02/18 02:06:43;;;;;;;4.47;1.53;;;5.90;97.30;;;;;;5038266;28;20175;-87
2022/02/18 02:09:08;;;;;;;3.07;1.20;;;5.80;97.30;;;;;;5037483;28;20178;-87
2022/02/18 02:11:35;;;;;;;4.40;1.93;;;5.80;97.30;;;;;;5037772;28;20227;-89
2022/02/18 02:14:05;;;;;;;4.37;1.70;;;5.80;97.30;;;;;;5038205;28;20298;-87
2022/02/18 02:16:31;;;;;;;4.70;2.17;;;5.80;97.30;;;;;;5037869;28;20453;-87
2022/02/18 02:18:57;;;;;;;5.50;2.10;;;5.70;97.30;;;;;;5038086;28;20446;-88
2022/02/18 02:21:22;;;;;;;7.77;1.40;;;5.60;97.30;;;;;;5033551;28;20481;-87
2022/02/18 02:23:49;;;;;;;2.47;1.57;;;5.60;97.30;;;;;;5018132;28;20184;-87
2022/02/18 02:26:16;;;;;;;3.33;1.50;;;5.50;97.30;;;;;;5018357;28;20179;-88
2022/02/18 02:28:41;;;;;;;2.03;1.50;;;5.50;97.30;;;;;;5018228;28;20427;-88
2022/02/18 02:31:07;;;;;;;2.70;2.43;;;5.40;97.30;;;;;;5017878;28;20585;-88
2022/02/18 02:33:33;;;;;;;4.10;1.53;;;5.40;97.30;;;;;;5017866;28;20271;-87
2022/02/18 02:35:59;;;;;;;3.70;1.80;;;5.40;97.30;;;;;;5017990;28;20728;-88
2022/02/18 02:38:24;;;;;;;7.80;1.80;;;5.30;97.30;;;;;;5017909;28;20418;-87
2022/02/18 02:40:50;;;;;;;6.23;1.50;;;5.30;97.30;;;;;;5017748;28;20504;-88
2022/02/18 02:43:15;;;;;;;5.80;1.80;;;5.30;97.30;;;;;;5017509;28;20255;-86
2022/02/18 02:45:42;;;;;;;3.50;1.43;;;5.30;97.30;;;;;;5035343;28;20182;-87
2022/02/18 02:48:07;;;;;;;1.80;1.60;;;5.30;97.30;;;;;;5017703;28;20827;-87
2022/02/18 02:50:33;;;;;;;6.77;1.50;;;5.30;97.30;;;;;;5017703;28;20407;-85
2022/02/18 02:52:59;;;;;;;5.80;2.30;;;5.30;97.30;;;;;;5017457;28;20219;-86
2022/02/18 02:55:24;;;;;;;4.87;2.03;;;5.20;97.30;;;;;;5033868;28;20192;-87
2022/02/18 02:57:50;;;;;;;2.30;1.67;;;5.20;97.30;;;;;;5017545;28;20181;-85
2022/02/18 03:00:17;;;;;;;2.37;2.17;;;5.20;97.30;;;;;;5017724;28;20176;-88
2022/02/18 03:02:43;;;;;;;2.70;1.87;;;5.10;97.30;;;;;;5017187;28;20291;-86
2022/02/18 03:05:09;;;;;;;2.73;1.50;;;5.10;97.30;;;;;;5035170;28;20418;-86
2022/02/18 03:07:35;;;;;;;5.60;1.57;;;5.00;97.30;;;;;;5017138;28;20469;-88
2022/02/18 03:10:03;;;;;;;4.53;1.60;;;5.00;97.30;;;;;;5017279;28;20476;-88
2022/02/18 03:12:28;;;;;;;3.17;1.53;;;5.00;97.30;;;;;;5017622;28;20478;-87
2022/02/18 03:14:54;;;;;;;4.37;1.60;;;4.90;97.30;;;;;;5034618;28;20415;-87
2022/02/18 03:17:19;;;;;;;2.90;1.70;;;4.90;97.30;;;;;;5017182;28;20184;-86
2022/02/18 03:19:45;;;;;;;3.33;1.40;;;4.90;97.30;;;;;;5017003;28;20218;-85
2022/02/18 03:22:11;;;;;;;3.07;1.70;;;4.90;97.30;;;;;;5034566;28;20196;-87
2022/02/18 03:24:37;;;;;;;3.53;1.47;;;4.90;97.30;;;;;;5033409;28;20180;-88
2022/02/18 03:27:03;;;;;;;7.23;2.20;;;4.90;97.30;;;;;;5033793;28;20420;-86
2022/02/18 03:29:28;;;;;;;13.90;1.83;;;4.90;97.30;;;;;;5033534;28;20582;-87
2022/02/18 03:31:56;;;;;;;3.87;1.97;;;4.90;97.30;;;;;;5033550;28;20427;-87
2022/02/18 03:34:21;;;;;;;8.00;2.17;;;5.00;97.30;;;;;;5033391;28;20192;-87
2022/02/18 03:36:48;;;;;;;6.87;1.60;;;5.00;97.30;;;;;;5034631;28;20449;-87
2022/02/18 03:39:13;;;;;;;6.90;1.43;;;5.00;97.30;;;;;;5034431;28;20176;-86
2022/02/18 03:41:39;;;;;;;1.80;1.27;;;5.00;97.30;;;;;;5032640;28;20481;-88
2022/02/18 03:44:08;;;;;;;1.90;1.20;;;5.00;97.30;;;;;;5025765;28;20188;-85
2022/02/18 03:46:34;;;;;;;1.20;1.07;;;5.10;97.30;;;;;;5034537;28;20172;-87
2022/02/18 03:48:59;;;;;;;3.37;2.13;;;5.10;97.30;;;;;;5014858;28;20439;-87
2022/02/18 03:51:25;;;;;;;6.73;1.50;;;5.10;97.30;;;;;;5015465;28;20802;-88
2022/02/18 03:53:51;;;;;;;2.30;1.70;;;5.20;97.30;;;;;;5015383;28;20264;-87
2022/02/18 03:56:17;;;;;;;5.83;1.57;;;5.20;97.30;;;;;;5016627;28;20199;-88
2022/02/18 03:58:43;;;;;;;5.90;2.63;;;5.20;97.30;;;;;;5016232;28;20200;-88
2022/02/18 04:01:08;;;;;;;5.00;1.63;;;5.30;97.30;;;;;;5016504;28;21116;-88
2022/02/18 04:03:35;;;;;;;6.00;1.60;;;5.30;97.30;;;;;;5015797;28;20697;-87
2022/02/18 04:06:00;;;;;;;3.80;1.63;;;5.30;97.30;;;;;;5015793;28;20202;-87
2022/02/18 04:08:26;;;;;;;6.00;2.17;;;5.40;97.30;;;;;;5016261;28;20541;-88
2022/02/18 04:10:51;;;;;;;3.47;1.63;;;5.40;97.30;;;;;;5033424;28;20890;-88
2022/02/18 04:13:17;;;;;;;5.53;1.93;;;5.40;97.30;;;;;;5015933;28;20224;-87
2022/02/18 04:15:42;;;;;;;2.50;1.30;;;5.40;97.30;;;;;;5015945;28;20825;-86
2022/02/18 04:18:08;;;;;;;4.27;1.83;;;5.40;97.30;;;;;;5033951;28;20245;-87
2022/02/18 04:20:33;;;;;;;5.30;1.67;;;5.50;97.30;;;;;;5015944;28;20172;-87
2022/02/18 04:22:59;;;;;;;6.63;1.77;;;5.50;97.30;;;;;;5015877;28;20205;-87
2022/02/18 04:25:25;;;;;;;5.03;1.80;;;5.50;97.30;;;;;;5015516;28;20211;-85
2022/02/18 04:27:56;;;;;;;3.50;1.40;;;5.50;97.30;;;;;;5015826;28;20199;-87
2022/02/18 04:30:22;;;;;;;3.63;1.50;;;5.60;97.30;;;;;;5016260;28;20419;-87
2022/02/18 04:32:49;;;;;;;6.07;1.70;;;5.60;97.30;;;;;;5033212;28;20442;-86
2022/02/18 04:35:15;;;;;;;10.13;1.60;;;5.60;97.30;;;;;;5015027;28;20455;-88
2022/02/18 04:37:40;;;;;;;8.07;2.13;;;5.60;97.30;;;;;;5015670;28;20495;-87
2022/02/18 04:40:07;;;;;;;4.30;1.60;;;5.60;97.30;;;;;;5033334;28;20443;-88
2022/02/18 04:42:32;;;;;;;3.80;1.83;;;5.70;97.30;;;;;;5015570;28;20758;-88
2022/02/18 04:44:58;;;;;;;6.43;2.47;;;5.80;97.30;;;;;;5015518;28;20502;-88
2022/02/18 04:47:23;;;;;;;4.97;1.67;;;5.80;97.30;;;;;;5015368;28;20164;-87
2022/02/18 04:49:49;;;;;;;8.60;1.43;;;5.80;97.30;;;;;;5015361;28;20177;-87
2022/02/18 04:52:14;;;;;;;3.60;1.70;;;5.80;97.30;;;;;;5014435;28;20212;-88
2022/02/18 04:54:40;;;;;;;4.13;1.40;;;5.90;97.30;;;;;;5013049;28;20307;-88
2022/02/18 04:57:06;;;;;;;5.97;2.33;;;5.80;97.30;;;;;;5013059;28;20462;-88
2022/02/18 04:59:32;;;;;;;6.77;1.30;;;5.80;97.30;;;;;;5012964;28;20423;-87
2022/02/18 05:01:57;;;;;;;5.13;1.47;;;5.80;97.30;;;;;;5012739;28;20196;-88
2022/02/18 05:04:24;;;;;;;3.87;1.57;;;5.80;97.30;;;;;;5015694;28;20174;-88
2022/02/18 05:06:50;;;;;;;3.93;1.70;;;5.80;97.30;;;;;;5015656;28;20223;-89
2022/02/18 05:09:15;;;;;;;8.03;1.83;;;5.80;97.30;;;;;;5015258;28;20557;-87
2022/02/18 05:11:41;;;;;;;5.77;1.70;;;5.80;97.30;;;;;;5032749;28;20463;-88
2022/02/18 05:14:06;;;;;;;4.53;1.60;;;5.80;97.30;;;;;;5015550;28;20188;-88
2022/02/18 05:16:32;;;;;;;11.23;1.70;;;5.80;97.30;;;;;;5014916;28;20207;-87
2022/02/18 05:18:58;;;;;;;3.57;1.73;;;5.80;97.30;;;;;;5015369;28;20267;-87
2022/02/18 05:21:24;;;;;;;3.47;1.77;;;5.80;97.30;;;;;;5015572;28;20188;-89
2022/02/18 05:23:50;;;;;;;4.97;1.53;;;5.80;97.30;;;;;;5014951;28;20506;-87
2022/02/18 05:26:15;;;;;;;7.13;1.77;;;5.80;97.30;;;;;;5015228;28;20545;-88
2022/02/18 05:28:41;;;;;;;3.23;1.30;;;5.80;97.30;;;;;;5015332;28;20177;-88
2022/02/18 05:31:06;;;;;;;6.10;2.03;;;5.90;97.30;;;;;;5014664;28;20197;-87
2022/02/18 05:33:32;;;;;;;14.27;1.93;;;5.90;97.30;;;;;;5015316;28;20185;-86
2022/02/18 05:35:57;;;;;;;6.57;2.03;;;5.90;97.30;;;;;;5032249;28;20202;-86
2022/02/18 05:38:24;;;;;;;11.37;2.37;;;5.90;97.30;;;;;;5052629;28;20171;-88
2022/02/18 05:40:50;;;;;;;2.60;1.60;;;5.90;97.30;;;;;;5034999;28;20198;-88
2022/02/18 05:43:15;;;;;;;12.20;2.27;;;5.90;97.30;;;;;;5034441;28;20418;-87
2022/02/18 05:45:41;;;;;;;8.90;2.03;;;5.90;97.30;;;;;;5034459;28;20770;-87
2022/02/18 05:48:06;;;;;;;7.70;2.23;;;6.00;97.30;;;;;;5034972;28;20172;-87
2022/02/18 05:50:32;;;;;;;3.73;1.80;;;6.00;97.30;;;;;;5034465;28;20602;-88
2022/02/18 05:52:57;;;;;;;5.20;1.60;;;6.00;97.30;;;;;;5034595;28;20206;-89
2022/02/18 05:55:23;;;;;;;4.90;1.50;;;6.00;97.30;;;;;;5034491;28;20191;-87
2022/02/18 05:57:48;;;;;;;7.83;2.20;;;6.00;97.30;;;;;;5034537;28;20199;-88
2022/02/18 06:00:26;;;;;;;8.80;2.50;;;6.00;97.30;;;;;;5034437;28;20176;-88
2022/02/18 06:02:51;;;;;;;9.40;2.20;;;6.10;97.30;;;;;;5018936;28;20195;-86
2022/02/18 06:05:17;;;;;;;8.17;2.00;;;6.10;97.30;;;;;;5015056;28;20931;-88
2022/02/18 06:07:44;;;;;;;6.77;1.90;;;6.10;97.30;;;;;;5015035;28;20509;-86
2022/02/18 06:10:09;;;;;;;3.03;1.80;;;6.00;97.30;;;;;;5014938;28;20172;-87
2022/02/18 06:12:35;;;;;;;14.73;2.13;;;6.00;97.30;;;;;;5014721;28;20463;-88
2022/02/18 06:15:00;;;;;;;5.10;1.90;;;6.10;97.30;;;;;;5032106;28;20172;-88
2022/02/18 06:17:26;;;;;;;6.40;2.03;;;6.10;97.30;;;;;;5014460;28;20169;-88
2022/02/18 06:19:51;;;;;;;8.20;2.90;;;6.10;97.30;;;;;;5014521;28;20173;-88
2022/02/18 06:22:18;;;;;;;8.70;2.70;;;6.00;97.30;;;;;;5014755;28;20215;-87
2022/02/18 06:24:43;;;;;;;6.37;2.53;;;6.00;97.30;;;;;;5014389;28;20169;-87
2022/02/18 06:27:09;;;;;;;14.50;2.30;;;6.00;97.30;;;;;;5014364;28;20419;-88
2022/02/18 06:29:35;;;;;;;8.43;2.13;;;6.00;97.30;;;;;;5016418;28;20204;-87
2022/02/18 06:32:02;;;;;;;6.17;1.90;;;6.00;97.30;;;;;;5018206;28;20437;-87
2022/02/18 06:34:28;;;;;;;6.80;2.77;;;6.00;97.30;;;;;;5018236;28;20821;-87
2022/02/18 06:36:54;;;;;;;11.53;2.30;;;6.00;97.30;;;;;;5035848;28;21137;-87
2022/02/18 06:39:20;;;;;;;4.67;2.17;;;6.00;97.30;;;;;;5018125;28;20419;-88
2022/02/18 06:41:47;;;;;;;5.20;1.80;;;6.00;97.30;;;;;;5035601;28;20247;-88
2022/02/18 06:44:12;;;;;;;4.13;1.70;;;6.00;97.30;;;;;;5036171;28;20419;-88
2022/02/18 06:46:38;;;;;;;15.87;2.10;;;6.00;97.30;;;;;;5018016;28;20411;-89
2022/02/18 06:49:04;;;;;;;3.40;1.90;;;5.90;97.30;;;;;;5017858;28;20543;-88
2022/02/18 06:51:29;;;;;;;3.30;2.00;;;5.90;97.30;;;;;;5018488;28;20212;-87
2022/02/18 06:53:55;;;;;;;8.17;1.87;;;5.90;97.30;;;;;;5035467;28;20266;-86
2022/02/18 06:56:20;;;;;;;7.87;1.90;;;5.90;97.30;;;;;;5017492;28;20250;-87
2022/02/18 06:58:46;;;;;;;13.50;2.13;;;5.90;97.30;;;;;;5017957;28;20200;-87
2022/02/18 07:01:11;;;;;;;4.20;1.83;;;5.90;97.30;;;;;;5017434;28;20192;-88
2022/02/18 07:03:37;;;;;;;5.47;2.57;;;5.90;97.30;;;;;;5034550;28;20207;-87
2022/02/18 07:06:02;;;;;;;5.50;1.80;;;6.00;97.30;;;;;;5034453;28;20180;-89
2022/02/18 07:08:29;;;;;;;11.83;3.20;;;6.00;97.30;;;;;;5034729;28;20641;-87
2022/02/18 07:10:55;;;;;;;4.27;2.00;;;6.00;97.30;;;;;;5033861;28;20184;-88
2022/02/18 07:13:20;;;;;;;7.40;2.10;;;6.10;97.30;;;;;;5033657;28;20460;-88
2022/02/18 07:15:46;;;;;;;12.07;2.10;;;6.10;97.30;;;;;;5034938;28;20196;-88
2022/02/18 07:18:11;;;;;;;9.73;2.27;;;6.10;97.30;;;;;;5033929;28;20187;-88
2022/02/18 07:20:37;;;;;;;12.23;2.50;;;6.20;97.30;;;;;;5034103;28;20612;-87
2022/02/18 07:23:04;;;;;;;7.43;2.63;;;6.20;97.30;;;;;;5033345;28;20204;-88
2022/02/18 07:25:30;;;;;;;9.67;2.20;;;6.20;97.30;;;;;;5033598;28;20177;-87
2022/02/18 07:27:56;;;;;;;4.97;2.07;;;6.30;97.30;;;;;;5033891;28;20426;-87
2022/02/18 07:30:21;;;;;;;5.03;2.10;;;6.30;97.30;;;;;;5033717;28;20184;-87
2022/02/18 07:32:48;;;;;;;10.73;2.20;;;6.30;97.30;;;;;;5033557;28;20203;-88
2022/02/18 07:35:13;;;;;;;6.70;1.80;;;6.40;97.30;;;;;;5033739;28;20208;-87
2022/02/18 07:37:39;;;;;;;3.90;2.43;;;6.40;97.30;;;;;;5033903;28;20442;-88
2022/02/18 07:40:05;;;;;;;9.47;2.57;;;6.40;97.30;;;;;;5033485;28;20243;-88
2022/02/18 07:42:31;;;;;;;6.23;2.10;;;6.40;97.30;;;;;;5033089;28;20238;-88
2022/02/18 07:44:56;;;;;;;3.30;1.73;;;6.50;97.30;;;;;;5033834;28;20419;-88
2022/02/18 07:47:22;;;;;;;3.73;1.43;;;6.50;97.30;;;;;;5033521;28;20596;-88
2022/02/18 07:49:48;;;;;;;6.30;2.13;;;6.60;97.30;;;;;;5033872;28;20175;-87
2022/02/18 07:52:15;;;;;;;7.37;2.20;;;6.60;97.30;;;;;;5033673;28;20192;-87
2022/02/18 07:54:41;;;;;;;13.93;2.77;;;6.60;97.30;;;;;;5033301;28;20690;-88
2022/02/18 07:57:07;;;;;;;8.70;2.43;;;6.60;97.30;;;;;;5033734;28;20458;-88
2022/02/18 07:59:35;;;;;;;8.83;2.20;;;6.60;97.30;;;;;;5033531;28;20654;-89
2022/02/18 08:02:01;;;;;;;7.40;2.43;;;6.70;97.30;;;;;;5027729;28;20439;-88
2022/02/18 08:04:27;;;;;;;12.33;2.07;;;6.70;97.30;;;;;;5016495;28;20469;-87
2022/02/18 08:06:54;;;;;;;6.87;2.80;;;6.70;97.30;;;;;;5016523;28;20188;-88
2022/02/18 08:09:20;;;;;;;9.67;2.40;;;6.70;97.30;;;;;;5016741;28;20520;-88
2022/02/18 08:11:46;;;;;;;9.87;5.00;;;6.70;97.30;;;;;;5016619;28;20471;-88
2022/02/18 08:14:11;;;;;;;10.83;2.90;;;6.70;97.30;;;;;;5017021;28;20185;-87
2022/02/18 08:16:37;;;;;;;10.43;2.87;;;6.70;97.30;;;;;;5016534;28;20334;-88
2022/02/18 08:19:03;;;;;;;14.87;3.70;;;6.70;97.30;;;;;;5033898;28;20205;-89
2022/02/18 08:21:28;;;;;;;7.90;2.33;;;6.70;97.30;;;;;;5016566;28;20188;-87
2022/02/18 08:23:56;;;;;;;7.80;2.20;;;6.80;97.30;;;;;;5016243;28;20415;-87
2022/02/18 08:26:22;;;;;;;5.37;1.93;;;6.80;97.30;;;;;;5035083;28;20226;-88
2022/02/18 08:28:48;;;;;;;6.57;2.40;;;6.80;97.30;;;;;;5016709;28;20438;-90
2022/02/18 08:31:14;;;;;;;8.97;2.70;;;6.80;97.30;;;;;;5016248;28;20200;-87
2022/02/18 08:33:41;;;;;;;6.93;2.63;;;6.80;97.30;;;;;;5016344;28;20427;-87
2022/02/18 08:36:07;;;;;;;13.13;2.60;;;6.80;97.30;;;;;;5016749;28;20549;-87
2022/02/18 08:38:32;;;;;;;16.47;2.93;;;6.90;97.30;;;;;;5016585;28;20497;-87
2022/02/18 08:40:58;;;;;;;7.40;2.03;;;6.90;97.30;;;;;;5016404;28;20766;-88
2022/02/18 08:43:23;;;;;;;7.90;3.70;;;6.90;97.30;;;;;;5016535;28;20176;-87
2022/02/18 08:45:49;;;;;;;7.23;2.20;;;6.90;97.30;;;;;;5016516;28;20183;-89
2022/02/18 08:48:14;;;;;;;6.67;1.93;;;7.00;97.30;;;;;;5016491;28;20211;-88
2022/02/18 08:50:40;;;;;;;9.30;2.40;;;7.00;97.30;;;;;;5016546;28;20180;-87
2022/02/18 08:53:06;;;;;;;8.20;2.10;;;7.10;97.30;;;;;;5014939;28;20176;-87
2022/02/18 08:55:32;;;;;;;10.00;3.63;;;7.10;97.30;;;;;;5015416;28;20972;-88
2022/02/18 08:58:01;;;;;;;12.70;2.90;;;7.20;97.30;;;;;;5016025;28;20179;-88
2022/02/18 09:00:27;;;;;;;7.00;2.80;;;7.20;97.30;;;;;;5033368;28;20172;-87
2022/02/18 09:02:52;;;;;;;17.13;2.70;;;7.20;97.30;;;;;;5015684;28;20443;-87
2022/02/18 09:05:18;;;;;;;19.27;2.40;;;7.30;97.30;;;;;;5016196;28;20415;-88
2022/02/18 09:07:44;;;;;;;8.17;2.40;;;7.40;97.30;;;;;;5015640;28;20183;-88
2022/02/18 09:10:11;;;;;;;6.53;2.07;;;7.50;97.30;;;;;;5015052;28;20172;-87
2022/02/18 09:12:39;;;;;;;4.53;2.50;;;7.50;97.30;;;;;;5033080;28;21021;-87
2022/02/18 09:15:06;;;;;;;9.17;2.47;;;7.60;97.30;;;;;;5015424;28;20395;-87
2022/02/18 09:17:31;;;;;;;11.77;2.80;;;7.60;97.30;;;;;;5015998;28;20410;-86
2022/02/18 09:19:58;;;;;;;6.03;2.57;;;7.50;97.30;;;;;;5016275;28;20640;-88
2022/02/18 09:22:24;;;;;;;12.13;2.50;;;7.50;97.30;;;;;;5015900;28;20188;-86
2022/02/18 09:24:50;;;;;;;16.97;2.87;;;7.40;97.30;;;;;;5015360;28;20956;-88
2022/02/18 09:27:15;;;;;;;8.97;2.50;;;7.40;97.30;;;;;;5015357;28;20411;-87
2022/02/18 09:29:41;;;;;;;12.50;2.50;;;7.30;97.30;;;;;;5015820;28;20172;-88
2022/02/18 09:32:06;;;;;;;7.93;2.37;;;7.30;97.30;;;;;;5015393;28;20196;-88
2022/02/18 09:34:32;;;;;;;8.57;2.60;;;7.30;97.30;;;;;;5015307;28;20283;-88
2022/02/18 09:36:58;;;;;;;14.83;3.83;;;7.20;97.30;;;;;;5015886;28;20285;-88
2022/02/18 09:39:24;;;;;;;9.87;2.20;;;7.20;97.30;;;;;;5015053;28;20176;-86
2022/02/18 09:41:50;;;;;;;11.83;1.97;;;7.20;97.30;;;;;;5033064;28;20469;-87
2022/02/18 09:44:17;;;;;;;4.63;1.70;;;7.30;97.30;;;;;;5015545;28;20451;-88
2022/02/18 09:46:45;;;;;;;9.40;2.20;;;7.30;97.30;;;;;;5015600;28;20203;-87
2022/02/18 09:49:11;;;;;;;7.30;1.97;;;7.30;97.30;;;;;;5015507;28;20419;-87
2022/02/18 09:51:40;;;;;;;5.10;2.03;;;7.30;97.30;;;;;;5032904;28;20493;-87
2022/02/18 09:54:06;;;;;;;7.83;2.50;;;7.30;97.30;;;;;;5014994;28;20188;-87
2022/02/18 09:56:33;;;;;;;7.97;2.40;;;7.30;97.30;;;;;;5015235;28;20461;-88
2022/02/18 09:59:04;;;;;;;7.37;2.70;;;7.30;97.30;;;;;;5015403;28;20753;-87
2022/02/18 10:01:33;;;;;;;19.67;2.70;;;7.30;97.30;;;;;;5014995;28;20941;-88
2022/02/18 10:04:02;;;;;;;5.93;2.63;;;7.30;97.30;;;;;;5015860;28;20500;-86
2022/02/18 10:06:29;;;;;;;6.00;2.23;;;7.30;97.30;;;;;;5018818;28;20411;-87
2022/02/18 10:08:57;;;;;;;9.80;3.60;;;7.30;97.30;;;;;;5019062;28;20430;-87
2022/02/18 10:11:22;;;;;;;6.87;2.30;;;7.30;97.30;;;;;;5036432;28;20545;-88
2022/02/18 10:13:48;;;;;;;17.90;3.47;;;7.30;97.30;;;;;;5018799;28;20877;-89
2022/02/18 10:16:19;;;;;;;7.87;2.03;;;7.30;97.30;;;;;;5018898;28;20204;-88
2022/02/18 10:18:52;;;;;;;12.33;3.10;;;7.40;97.30;;;;;;5018730;28;20240;-88
2022/02/18 10:21:28;;;;;;;8.27;2.43;;;7.40;97.30;;;;;;5018325;28;20948;-87
2022/02/18 10:24:14;;;;;;;3.87;2.83;;;7.40;97.30;;;;;;5017958;28;20419;-87
2022/02/18 10:26:51;;;;;;;11.07;2.43;;;7.40;97.30;;;;;;5002071;28;20429;-88
2022/02/18 10:29:19;;;;;;;11.73;2.97;;;7.40;97.30;;;;;;5018474;28;20422;-88
2022/02/18 10:31:44;;;;;;;6.90;2.47;;;7.50;97.30;;;;;;5036227;28;20434;-88
2022/02/18 10:34:11;;;;;;;7.70;2.47;;;7.50;97.30;;;;;;5018814;28;20425;-87
2022/02/18 10:36:42;;;;;;;12.93;2.63;;;7.60;97.30;;;;;;5019223;28;20200;-87
2022/02/18 10:39:27;;;;;;;11.83;3.03;;;7.60;97.30;;;;;;5018413;28;20425;-88
2022/02/18 10:41:57;;;;;;;12.47;2.43;;;7.60;97.30;;;;;;5018543;28;20446;-87
2022/02/18 10:44:34;;;;;;;11.80;2.57;;;7.60;97.30;;;;;;5018195;28;20792;-88
2022/02/18 10:47:05;;;;;;;7.53;2.77;;;7.60;97.30;;;;;;5018853;28;20445;-88
2022/02/18 10:49:33;;;;;;;14.00;3.00;;;7.60;97.30;;;;;;5018420;28;21114;-89
2022/02/18 10:52:03;;;;;;;15.17;4.03;;;7.60;97.30;;;;;;5018307;28;20437;-88
2022/02/18 10:54:33;;;;;;;10.50;2.77;;;7.60;97.30;;;;;;5018710;28;20477;-88
2022/02/18 10:57:20;;;;;;;9.87;2.00;;;7.50;97.30;;;;;;5018523;28;20450;-87
2022/02/18 10:59:47;;;;;;;13.20;2.90;;;7.50;97.30;;;;;;5035726;28;20414;-89
2022/02/18 11:02:13;;;;;;;19.27;3.43;;;7.50;97.30;;;;;;5018585;28;20450;-88
2022/02/18 11:04:38;;;;;;;14.27;2.80;;;7.40;97.30;;;;;;5018384;28;20407;-88
2022/02/18 11:07:15;;;;;;;12.17;2.80;;;7.40;97.30;;;;;;5018316;28;20623;-89
2022/02/18 11:09:46;;;;;;;9.17;2.20;;;7.40;97.30;;;;;;5018287;28;20172;-89
2022/02/18 11:12:13;;;;;;;13.67;3.07;;;7.40;97.30;;;;;;5018334;28;20481;-89
2022/02/18 11:14:41;;;;;;;16.13;2.60;;;7.40;97.30;;;;;;5018886;28;20922;-87
2022/02/18 11:17:07;;;;;;;10.20;2.40;;;7.40;97.30;;;;;;5018205;28;20466;-87
2022/02/18 11:19:32;;;;;;;17.00;3.40;;;7.40;97.30;;;;;;5018001;28;20411;-87
2022/02/18 11:21:58;;;;;;;7.30;3.67;;;7.40;97.30;;;;;;5017995;28;20194;-88
2022/02/18 11:24:25;;;;;;;14.00;2.90;;;7.40;97.30;;;;;;5017918;28;20195;-88
2022/02/18 11:26:51;;;;;;;14.87;3.50;;;7.40;97.30;;;;;;5018164;28;20502;-88
2022/02/18 11:29:20;;;;;;;17.33;3.07;;;7.40;97.30;;;;;;5017554;28;20426;-88
2022/02/18 11:31:52;;;;;;;6.77;2.70;;;7.30;97.30;;;;;;5017704;28;20442;-89
2022/02/18 11:34:43;;;;;;;17.23;3.40;;;7.30;97.30;;;;;;5018089;28;20415;-88
2022/02/18 11:37:30;;;;;;;9.53;3.90;;;7.30;97.30;;;;;;5006865;28;20459;-88
2022/02/18 11:40:20;;;;;;;11.67;3.43;;;7.30;97.30;;;;;;5018115;28;20411;-88
2022/02/18 11:43:03;;;;;;;20.87;3.20;;;7.20;97.30;;;;;;5017920;28;20427;-89
2022/02/18 11:45:30;;;;;;;24.73;4.40;;;7.20;97.30;;;;;;5018127;28;20455;-88
2022/02/18 11:47:55;;;;;;;13.13;3.10;;;7.10;97.30;;;;;;5018408;28;20403;-88
2022/02/18 11:50:27;;;;;;;25.73;3.13;;;7.10;97.30;;;;;;5017918;28;20415;-88
2022/02/18 11:52:53;;;;;;;16.23;3.80;;;7.10;97.30;;;;;;5018257;28;20196;-87
2022/02/18 11:55:30;;;;;;;18.80;3.60;;;7.00;97.30;;;;;;5017932;28;20510;-89
2022/02/18 11:58:19;;;;;;;12.67;3.50;;;7.00;97.30;;;;;;5017664;28;20911;-88
2022/02/18 12:00:46;;;;;;;17.47;3.30;;;7.00;97.30;;;;;;5017339;28;20443;-88
2022/02/18 12:03:19;;;;;;;17.60;3.10;;;7.00;97.30;;;;;;5018479;28;20902;-89
2022/02/18 12:06:12;;;;;;;15.07;3.20;;;7.00;97.30;;;;;;5017635;28;20416;-88
2022/02/18 12:08:51;;;;;;;20.10;4.23;;;7.10;97.30;;;;;;5018217;28;20773;-88
2022/02/18 12:11:18;;;;;;;23.77;3.90;;;7.10;97.30;;;;;;5017295;28;20442;-89
2022/02/18 12:14:02;;;;;;;20.10;3.73;;;7.10;97.30;;;;;;5017160;28;20478;-88
2022/02/18 12:16:28;;;;;;;18.67;4.30;;;7.10;97.30;;;;;;5017365;28;20494;-88
2022/02/18 12:19:00;;;;;;;19.57;3.00;;;7.20;97.30;;;;;;5017425;28;20442;-87
2022/02/18 12:21:26;;;;;;;15.83;3.80;;;7.20;97.30;;;;;;5017074;28;20522;-88
2022/02/18 12:23:51;;;;;;;17.10;3.57;;;7.20;97.30;;;;;;5017388;28;20502;-87
2022/02/18 12:26:22;;;;;;;16.00;3.67;;;7.30;97.30;;;;;;5017632;28;20207;-88
2022/02/18 12:28:49;;;;;;;13.73;3.43;;;7.30;97.30;;;;;;5017128;28;20632;-88
2022/02/18 12:31:16;;;;;;;9.67;3.50;;;7.40;97.30;;;;;;5017488;28;20569;-89
2022/02/18 12:33:43;;;;;;;17.00;3.97;;;7.50;97.30;;;;;;5016725;28;20415;-88
2022/02/18 12:36:16;;;;;;;15.90;3.20;;;7.50;97.30;;;;;;5016450;28;20447;-88
2022/02/18 12:38:46;;;;;;;11.90;3.07;;;7.60;97.30;;;;;;5016877;28;20412;-88
2022/02/18 12:41:12;;;;;;;20.63;4.10;;;7.70;97.30;;;;;;5016275;28;20427;-88
2022/02/18 12:46:16;;;;;;;10.20;2.83;;;7.80;97.30;;;;;;5073676;22;20486;-82
2022/02/18 12:48:50;;;;;;;11.57;3.10;;;7.80;97.30;;;;;;5047034;28;20416;-82
2022/02/18 12:51:25;;;;;;;13.73;3.00;;;7.90;97.30;;;;;;5039581;28;20401;-82
2022/02/18 12:53:53;;;;;;;17.27;3.60;;;7.90;97.30;;;;;;5039487;28;20432;-82
2022/02/18 12:56:23;;;;;;;18.80;3.10;;;7.90;97.30;;;;;;5048681;28;20457;-82